sensor_id;sensor_type;location;lat;lon;timestamp;temperature;humidity
10543;DHT22;5320;50.046;10.314;2022-09-09T00:00:46;15.40;99.90
10543;DHT22;5320;50.046;10.314;2022-09-09T00:03:24;15.40;99.90
10543;DHT22;5320;50.046;10.314;2022-09-09T00:06:30;15.40;99.90
10543;DHT22;5320;50.046;10.314;2022-09-09T00:08:59;15.30;99.90
10543;DHT22;5320;50.046;10.314;2022-09-09T00:11:53;15.40;99.90
10543;DHT22;5320;50.046;10.314;2022-09-09T00:14:45;15.50;99.90
10543;DHT22;5320;50.046;10.314;2022-09-09T00:19:53;15.60;99.90
10543;DHT22;5320;50.046;10.314;2022-09-09T00:22:27;15.70;99.90
10543;DHT22;5320;50.046;10.314;2022-09-09T00:25:08;15.80;99.90
10543;DHT22;5320;50.046;10.314;2022-09-09T00:27:41;15.80;99.90
10543;DHT22;5320;50.046;10.314;2022-09-09T00:30:22;15.80;99.90
10543;DHT22;5320;50.046;10.314;2022-09-09T00:32:59;15.80;99.90
10543;DHT22;5320;50.046;10.314;2022-09-09T00:35:44;15.90;99.90
10543;DHT22;5320;50.046;10.314;2022-09-09T00:38:18;15.80;99.90
10543;DHT22;5320;50.046;10.314;2022-09-09T00:40:53;15.80;99.90
10543;DHT22;5320;50.046;10.314;2022-09-09T00:43:29;15.80;99.90
10543;DHT22;5320;50.046;10.314;2022-09-09T00:46:24;15.70;99.90
10543;DHT22;5320;50.046;10.314;2022-09-09T00:49:01;15.70;99.90
10543;DHT22;5320;50.046;10.314;2022-09-09T00:51:59;15.70;99.90
10543;DHT22;5320;50.046;10.314;2022-09-09T00:57:42;15.90;99.90
10543;DHT22;5320;50.046;10.314;2022-09-09T01:00:22;15.90;97.40
10543;DHT22;5320;50.046;10.314;2022-09-09T01:02:58;16.00;89.50
10543;DHT22;5320;50.046;10.314;2022-09-09T01:05:42;16.00;67.60
10543;DHT22;5320;50.046;10.314;2022-09-09T01:08:24;16.00;89.80
10543;DHT22;5320;50.046;10.314;2022-09-09T01:10:54;16.00;73.00
10543;DHT22;5320;50.046;10.314;2022-09-09T01:13:29;16.00;95.40
10543;DHT22;5320;50.046;10.314;2022-09-09T01:16:01;15.90;99.90
10543;DHT22;5320;50.046;10.314;2022-09-09T01:18:39;15.80;99.90
10543;DHT22;5320;50.046;10.314;2022-09-09T01:26:46;15.60;99.90
10543;DHT22;5320;50.046;10.314;2022-09-09T01:29:15;15.60;99.90
10543;DHT22;5320;50.046;10.314;2022-09-09T01:34:52;15.60;99.90
10543;DHT22;5320;50.046;10.314;2022-09-09T01:37:18;15.50;99.90
10543;DHT22;5320;50.046;10.314;2022-09-09T01:39:44;15.50;99.90
10543;DHT22;5320;50.046;10.314;2022-09-09T01:42:13;15.50;99.90
10543;DHT22;5320;50.046;10.314;2022-09-09T01:44:40;15.50;99.90
10543;DHT22;5320;50.046;10.314;2022-09-09T01:47:06;15.50;99.90
10543;DHT22;5320;50.046;10.314;2022-09-09T01:49:32;15.60;99.90
10543;DHT22;5320;50.046;10.314;2022-09-09T01:51:59;15.60;99.90
10543;DHT22;5320;50.046;10.314;2022-09-09T01:54:28;15.60;99.90
10543;DHT22;5320;50.046;10.314;2022-09-09T01:59:49;15.60;99.90
10543;DHT22;5320;50.046;10.314;2022-09-09T02:02:20;15.50;99.90
10543;DHT22;5320;50.046;10.314;2022-09-09T02:04:52;15.50;99.90
10543;DHT22;5320;50.046;10.314;2022-09-09T02:07:40;15.50;99.90
10543;DHT22;5320;50.046;10.314;2022-09-09T02:10:14;15.40;99.90
10543;DHT22;5320;50.046;10.314;2022-09-09T02:12:46;15.40;99.90
10543;DHT22;5320;50.046;10.314;2022-09-09T02:18:12;15.40;99.90
10543;DHT22;5320;50.046;10.314;2022-09-09T02:20:39;15.40;99.90
10543;DHT22;5320;50.046;10.314;2022-09-09T02:23:07;15.40;99.90
10543;DHT22;5320;50.046;10.314;2022-09-09T02:25:35;15.40;99.90
10543;DHT22;5320;50.046;10.314;2022-09-09T02:28:06;15.40;99.90
10543;DHT22;5320;50.046;10.314;2022-09-09T02:30:34;15.40;99.90
10543;DHT22;5320;50.046;10.314;2022-09-09T02:33:02;15.40;99.90
10543;DHT22;5320;50.046;10.314;2022-09-09T02:35:30;15.30;99.90
10543;DHT22;5320;50.046;10.314;2022-09-09T02:38:01;15.40;99.90
10543;DHT22;5320;50.046;10.314;2022-09-09T02:40:28;15.40;99.90
10543;DHT22;5320;50.046;10.314;2022-09-09T02:42:54;15.30;99.90
10543;DHT22;5320;50.046;10.314;2022-09-09T02:45:25;15.20;99.90
10543;DHT22;5320;50.046;10.314;2022-09-09T02:48:16;15.20;99.90
10543;DHT22;5320;50.046;10.314;2022-09-09T02:53:55;15.30;99.90
10543;DHT22;5320;50.046;10.314;2022-09-09T02:56:25;15.30;99.90
10543;DHT22;5320;50.046;10.314;2022-09-09T02:58:53;15.30;99.90
10543;DHT22;5320;50.046;10.314;2022-09-09T03:01:20;15.40;99.90
10543;DHT22;5320;50.046;10.314;2022-09-09T03:03:46;15.40;99.90
10543;DHT22;5320;50.046;10.314;2022-09-09T03:06:12;15.40;99.90
10543;DHT22;5320;50.046;10.314;2022-09-09T03:08:38;15.30;99.90
10543;DHT22;5320;50.046;10.314;2022-09-09T03:11:04;15.30;99.90
10543;DHT22;5320;50.046;10.314;2022-09-09T03:13:29;15.30;99.90
10543;DHT22;5320;50.046;10.314;2022-09-09T03:15:55;15.40;99.90
10543;DHT22;5320;50.046;10.314;2022-09-09T03:18:21;15.40;99.90
10543;DHT22;5320;50.046;10.314;2022-09-09T03:20:47;15.40;99.90
10543;DHT22;5320;50.046;10.314;2022-09-09T03:23:16;15.30;99.90
10543;DHT22;5320;50.046;10.314;2022-09-09T03:25:49;15.40;99.90
10543;DHT22;5320;50.046;10.314;2022-09-09T03:28:15;15.40;99.90
10543;DHT22;5320;50.046;10.314;2022-09-09T03:30:41;15.30;99.90
10543;DHT22;5320;50.046;10.314;2022-09-09T03:33:07;15.30;99.90
10543;DHT22;5320;50.046;10.314;2022-09-09T03:35:32;15.30;99.90
10543;DHT22;5320;50.046;10.314;2022-09-09T03:37:58;15.40;99.90
10543;DHT22;5320;50.046;10.314;2022-09-09T03:40:24;15.40;99.90
10543;DHT22;5320;50.046;10.314;2022-09-09T03:42:49;15.40;99.90
10543;DHT22;5320;50.046;10.314;2022-09-09T03:45:15;15.40;99.90
10543;DHT22;5320;50.046;10.314;2022-09-09T03:47:42;15.50;99.90
10543;DHT22;5320;50.046;10.314;2022-09-09T03:50:08;15.50;99.90
10543;DHT22;5320;50.046;10.314;2022-09-09T03:52:37;15.50;99.90
10543;DHT22;5320;50.046;10.314;2022-09-09T03:55:04;15.60;99.90
10543;DHT22;5320;50.046;10.314;2022-09-09T03:57:30;15.60;99.90
10543;DHT22;5320;50.046;10.314;2022-09-09T03:59:56;15.60;99.90
10543;DHT22;5320;50.046;10.314;2022-09-09T04:02:22;15.50;99.90
10543;DHT22;5320;50.046;10.314;2022-09-09T04:04:47;15.50;99.90
10543;DHT22;5320;50.046;10.314;2022-09-09T04:07:13;15.50;99.90
10543;DHT22;5320;50.046;10.314;2022-09-09T04:09:39;15.50;99.90
10543;DHT22;5320;50.046;10.314;2022-09-09T04:12:05;15.50;99.90
10543;DHT22;5320;50.046;10.314;2022-09-09T04:14:33;15.50;99.90
10543;DHT22;5320;50.046;10.314;2022-09-09T04:16:59;15.50;99.90
10543;DHT22;5320;50.046;10.314;2022-09-09T04:19:25;15.50;99.90
10543;DHT22;5320;50.046;10.314;2022-09-09T04:21:51;15.50;99.90
10543;DHT22;5320;50.046;10.314;2022-09-09T04:24:17;15.50;99.90
10543;DHT22;5320;50.046;10.314;2022-09-09T04:26:43;15.50;99.90
10543;DHT22;5320;50.046;10.314;2022-09-09T04:29:09;15.50;99.90
10543;DHT22;5320;50.046;10.314;2022-09-09T04:31:35;15.50;99.90
10543;DHT22;5320;50.046;10.314;2022-09-09T04:34:00;15.50;99.90
10543;DHT22;5320;50.046;10.314;2022-09-09T04:36:32;15.50;99.90
10543;DHT22;5320;50.046;10.314;2022-09-09T04:38:57;15.50;99.90
10543;DHT22;5320;50.046;10.314;2022-09-09T04:41:23;15.50;99.90
10543;DHT22;5320;50.046;10.314;2022-09-09T04:43:49;15.40;99.90
10543;DHT22;5320;50.046;10.314;2022-09-09T04:46:15;15.40;99.90
10543;DHT22;5320;50.046;10.314;2022-09-09T04:48:44;15.50;99.90
10543;DHT22;5320;50.046;10.314;2022-09-09T04:51:12;15.50;99.90
10543;DHT22;5320;50.046;10.314;2022-09-09T04:53:39;15.40;99.90
10543;DHT22;5320;50.046;10.314;2022-09-09T04:56:10;15.40;99.90
10543;DHT22;5320;50.046;10.314;2022-09-09T04:58:38;15.50;99.90
10543;DHT22;5320;50.046;10.314;2022-09-09T05:01:08;15.50;99.90
10543;DHT22;5320;50.046;10.314;2022-09-09T05:03:35;15.50;99.90
10543;DHT22;5320;50.046;10.314;2022-09-09T05:06:09;15.50;99.90
10543;DHT22;5320;50.046;10.314;2022-09-09T05:08:37;15.50;99.90
10543;DHT22;5320;50.046;10.314;2022-09-09T05:11:04;15.40;99.90
10543;DHT22;5320;50.046;10.314;2022-09-09T05:13:30;15.40;99.90
10543;DHT22;5320;50.046;10.314;2022-09-09T05:15:57;15.40;99.90
10543;DHT22;5320;50.046;10.314;2022-09-09T05:18:22;15.40;99.90
10543;DHT22;5320;50.046;10.314;2022-09-09T05:20:49;15.40;99.90
10543;DHT22;5320;50.046;10.314;2022-09-09T05:23:16;15.40;99.90
10543;DHT22;5320;50.046;10.314;2022-09-09T05:25:42;15.40;99.90
10543;DHT22;5320;50.046;10.314;2022-09-09T05:28:09;15.40;99.90
10543;DHT22;5320;50.046;10.314;2022-09-09T05:30:35;15.40;99.90
10543;DHT22;5320;50.046;10.314;2022-09-09T05:33:01;15.30;99.90
10543;DHT22;5320;50.046;10.314;2022-09-09T05:35:26;15.30;99.90
10543;DHT22;5320;50.046;10.314;2022-09-09T05:37:52;15.40;99.90
10543;DHT22;5320;50.046;10.314;2022-09-09T05:40:18;15.40;99.90
10543;DHT22;5320;50.046;10.314;2022-09-09T05:42:44;15.40;99.90
10543;DHT22;5320;50.046;10.314;2022-09-09T05:45:10;15.40;99.90
10543;DHT22;5320;50.046;10.314;2022-09-09T05:47:36;15.40;99.90
10543;DHT22;5320;50.046;10.314;2022-09-09T05:50:03;15.40;99.90
10543;DHT22;5320;50.046;10.314;2022-09-09T05:52:29;15.50;99.90
10543;DHT22;5320;50.046;10.314;2022-09-09T05:54:55;15.50;99.90
10543;DHT22;5320;50.046;10.314;2022-09-09T05:57:22;15.50;99.90
10543;DHT22;5320;50.046;10.314;2022-09-09T05:59:48;15.50;99.90
10543;DHT22;5320;50.046;10.314;2022-09-09T06:02:15;15.50;99.90
10543;DHT22;5320;50.046;10.314;2022-09-09T06:04:41;15.60;99.90
10543;DHT22;5320;50.046;10.314;2022-09-09T06:07:07;15.60;99.90
10543;DHT22;5320;50.046;10.314;2022-09-09T06:09:32;15.60;99.90
10543;DHT22;5320;50.046;10.314;2022-09-09T06:11:58;15.60;99.90
10543;DHT22;5320;50.046;10.314;2022-09-09T06:14:24;15.70;99.90
10543;DHT22;5320;50.046;10.314;2022-09-09T06:16:51;15.70;99.90
10543;DHT22;5320;50.046;10.314;2022-09-09T06:19:17;15.60;99.90
10543;DHT22;5320;50.046;10.314;2022-09-09T06:21:43;15.70;99.90
10543;DHT22;5320;50.046;10.314;2022-09-09T06:24:10;15.80;99.90
10543;DHT22;5320;50.046;10.314;2022-09-09T06:26:37;15.90;99.90
10543;DHT22;5320;50.046;10.314;2022-09-09T06:29:06;16.00;99.90
10543;DHT22;5320;50.046;10.314;2022-09-09T06:31:33;16.20;99.90
10543;DHT22;5320;50.046;10.314;2022-09-09T06:34:00;16.30;99.90
10543;DHT22;5320;50.046;10.314;2022-09-09T06:36:32;16.50;99.90
10543;DHT22;5320;50.046;10.314;2022-09-09T06:38:58;16.70;99.90
10543;DHT22;5320;50.046;10.314;2022-09-09T06:41:29;16.70;99.90
10543;DHT22;5320;50.046;10.314;2022-09-09T06:43:55;16.90;99.90
10543;DHT22;5320;50.046;10.314;2022-09-09T06:46:25;16.90;99.90
10543;DHT22;5320;50.046;10.314;2022-09-09T06:48:53;17.00;99.90
10543;DHT22;5320;50.046;10.314;2022-09-09T06:51:25;17.00;99.90
10543;DHT22;5320;50.046;10.314;2022-09-09T06:53:54;17.10;99.90
10543;DHT22;5320;50.046;10.314;2022-09-09T06:58:56;17.10;94.20
10543;DHT22;5320;50.046;10.314;2022-09-09T07:01:26;17.00;99.90
10543;DHT22;5320;50.046;10.314;2022-09-09T07:03:55;16.90;96.50
10543;DHT22;5320;50.046;10.314;2022-09-09T07:06:23;16.90;99.90
10543;DHT22;5320;50.046;10.314;2022-09-09T07:08:57;16.90;99.90
10543;DHT22;5320;50.046;10.314;2022-09-09T07:11:29;17.00;99.90
10543;DHT22;5320;50.046;10.314;2022-09-09T07:13:57;17.00;99.10
10543;DHT22;5320;50.046;10.314;2022-09-09T07:16:24;17.00;33.10
10543;DHT22;5320;50.046;10.314;2022-09-09T07:18:50;17.00;78.30
10543;DHT22;5320;50.046;10.314;2022-09-09T07:21:16;17.00;69.30
10543;DHT22;5320;50.046;10.314;2022-09-09T07:23:43;16.90;99.90
10543;DHT22;5320;50.046;10.314;2022-09-09T07:26:29;16.90;99.90
10543;DHT22;5320;50.046;10.314;2022-09-09T07:28:55;16.80;99.90
10543;DHT22;5320;50.046;10.314;2022-09-09T07:31:32;16.70;99.90
10543;DHT22;5320;50.046;10.314;2022-09-09T07:33:59;16.70;99.90
10543;DHT22;5320;50.046;10.314;2022-09-09T07:38:54;16.80;99.90
10543;DHT22;5320;50.046;10.314;2022-09-09T07:41:29;16.80;99.90
10543;DHT22;5320;50.046;10.314;2022-09-09T07:43:57;16.90;99.90
10543;DHT22;5320;50.046;10.314;2022-09-09T07:46:25;16.90;99.90
10543;DHT22;5320;50.046;10.314;2022-09-09T07:48:53;16.90;99.90
10543;DHT22;5320;50.046;10.314;2022-09-09T07:53:51;17.10;99.90
10543;DHT22;5320;50.046;10.314;2022-09-09T07:56:18;17.30;67.90
10543;DHT22;5320;50.046;10.314;2022-09-09T07:58:47;17.40;23.70
10543;DHT22;5320;50.046;10.314;2022-09-09T08:01:15;17.50;6.10
10543;DHT22;5320;50.046;10.314;2022-09-09T08:03:51;17.50;4.70
10543;DHT22;5320;50.046;10.314;2022-09-09T08:06:18;17.60;1.00
10543;DHT22;5320;50.046;10.314;2022-09-09T08:08:43;17.50;43.80
10543;DHT22;5320;50.046;10.314;2022-09-09T08:11:15;17.70;18.00
10543;DHT22;5320;50.046;10.314;2022-09-09T08:13:41;17.80;1.00
10543;DHT22;5320;50.046;10.314;2022-09-09T08:16:12;17.80;1.00
10543;DHT22;5320;50.046;10.314;2022-09-09T08:18:38;17.70;31.30
10543;DHT22;5320;50.046;10.314;2022-09-09T08:21:13;17.80;33.30
10543;DHT22;5320;50.046;10.314;2022-09-09T08:23:40;18.30;1.00
10543;DHT22;5320;50.046;10.314;2022-09-09T08:26:17;18.40;1.00
10543;DHT22;5320;50.046;10.314;2022-09-09T08:28:49;18.50;1.00
10543;DHT22;5320;50.046;10.314;2022-09-09T08:31:21;18.60;1.00
10543;DHT22;5320;50.046;10.314;2022-09-09T08:33:47;18.50;1.00
10543;DHT22;5320;50.046;10.314;2022-09-09T08:36:17;18.30;1.00
10543;DHT22;5320;50.046;10.314;2022-09-09T08:38:46;18.10;1.00
10543;DHT22;5320;50.046;10.314;2022-09-09T08:49:50;18.50;1.00
10543;DHT22;5320;50.046;10.314;2022-09-09T08:58:12;18.00;1.00
10543;DHT22;5320;50.046;10.314;2022-09-09T09:12:00;19.30;1.00
10543;DHT22;5320;50.046;10.314;2022-09-09T09:14:33;19.70;1.00
10543;DHT22;5320;50.046;10.314;2022-09-09T09:17:01;20.00;99.90
10543;DHT22;5320;50.046;10.314;2022-09-09T09:19:30;20.20;1.00
10543;DHT22;5320;50.046;10.314;2022-09-09T09:30:22;20.00;99.90
10543;DHT22;5320;50.046;10.314;2022-09-09T09:33:02;20.00;1.00
10543;DHT22;5320;50.046;10.314;2022-09-09T09:35:28;19.90;1.00
10543;DHT22;5320;50.046;10.314;2022-09-09T09:37:54;19.90;1.00
10543;DHT22;5320;50.046;10.314;2022-09-09T09:40:21;19.60;99.90
10543;DHT22;5320;50.046;10.314;2022-09-09T09:42:59;19.10;1.00
10543;DHT22;5320;50.046;10.314;2022-09-09T09:45:31;19.10;99.90
10543;DHT22;5320;50.046;10.314;2022-09-09T09:48:06;19.00;99.90
10543;DHT22;5320;50.046;10.314;2022-09-09T09:50:34;18.90;1.00
10543;DHT22;5320;50.046;10.314;2022-09-09T09:53:05;18.80;1.00
10543;DHT22;5320;50.046;10.314;2022-09-09T09:55:33;18.90;1.00
10543;DHT22;5320;50.046;10.314;2022-09-09T09:58:13;18.90;1.00
10543;DHT22;5320;50.046;10.314;2022-09-09T10:00:51;18.90;1.00
10543;DHT22;5320;50.046;10.314;2022-09-09T10:03:32;19.10;1.00
10543;DHT22;5320;50.046;10.314;2022-09-09T10:06:03;19.20;99.90
10543;DHT22;5320;50.046;10.314;2022-09-09T10:08:34;19.40;1.00
10543;DHT22;5320;50.046;10.314;2022-09-09T10:11:16;19.10;99.90
10543;DHT22;5320;50.046;10.314;2022-09-09T10:14:32;19.50;1.00
10543;DHT22;5320;50.046;10.314;2022-09-09T10:19:36;20.60;1.00
10543;DHT22;5320;50.046;10.314;2022-09-09T10:22:25;20.50;99.90
10543;DHT22;5320;50.046;10.314;2022-09-09T10:28:07;20.80;99.90
10543;DHT22;5320;50.046;10.314;2022-09-09T10:36:05;20.60;1.00
10543;DHT22;5320;50.046;10.314;2022-09-09T10:41:16;20.90;1.00
10543;DHT22;5320;50.046;10.314;2022-09-09T10:44:01;21.20;1.00
10543;DHT22;5320;50.046;10.314;2022-09-09T10:51:59;20.70;99.90
10543;DHT22;5320;50.046;10.314;2022-09-09T10:57:29;20.50;1.00
10543;DHT22;5320;50.046;10.314;2022-09-09T11:00:06;20.50;1.00
10543;DHT22;5320;50.046;10.314;2022-09-09T11:02:40;20.40;99.90
10543;DHT22;5320;50.046;10.314;2022-09-09T11:05:33;20.50;1.00
10543;DHT22;5320;50.046;10.314;2022-09-09T11:08:09;20.20;95.80
10543;DHT22;5320;50.046;10.314;2022-09-09T11:13:46;20.10;99.90
10543;DHT22;5320;50.046;10.314;2022-09-09T11:21:50;19.80;99.90
10543;DHT22;5320;50.046;10.314;2022-09-09T11:24:27;19.80;1.00
10543;DHT22;5320;50.046;10.314;2022-09-09T11:29:45;19.20;99.90
10543;DHT22;5320;50.046;10.314;2022-09-09T11:38:09;16.80;99.90
10543;DHT22;5320;50.046;10.314;2022-09-09T11:40:38;16.40;59.10
10543;DHT22;5320;50.046;10.314;2022-09-09T11:43:14;16.20;99.90
10543;DHT22;5320;50.046;10.314;2022-09-09T11:45:42;16.10;1.00
10543;DHT22;5320;50.046;10.314;2022-09-09T11:48:37;16.10;96.40
10543;DHT22;5320;50.046;10.314;2022-09-09T11:51:09;16.10;1.00
10543;DHT22;5320;50.046;10.314;2022-09-09T11:53:54;16.40;1.00
10543;DHT22;5320;50.046;10.314;2022-09-09T11:56:47;16.80;99.90
10543;DHT22;5320;50.046;10.314;2022-09-09T11:59:30;17.30;99.90
10543;DHT22;5320;50.046;10.314;2022-09-09T12:02:22;17.20;24.40
10543;DHT22;5320;50.046;10.314;2022-09-09T12:07:52;18.20;1.00
10543;DHT22;5320;50.046;10.314;2022-09-09T12:10:27;18.70;1.00
10543;DHT22;5320;50.046;10.314;2022-09-09T12:12:54;18.80;1.00
10543;DHT22;5320;50.046;10.314;2022-09-09T12:17:50;18.80;1.00
10543;DHT22;5320;50.046;10.314;2022-09-09T12:31:25;18.70;1.00
10543;DHT22;5320;50.046;10.314;2022-09-09T12:33:52;18.80;1.00
10543;DHT22;5320;50.046;10.314;2022-09-09T12:36:29;19.00;1.00
10543;DHT22;5320;50.046;10.314;2022-09-09T12:38:59;19.20;1.00
10543;DHT22;5320;50.046;10.314;2022-09-09T12:41:35;19.20;1.00
10543;DHT22;5320;50.046;10.314;2022-09-09T12:44:10;19.10;1.00
10543;DHT22;5320;50.046;10.314;2022-09-09T12:46:40;19.20;99.90
10543;DHT22;5320;50.046;10.314;2022-09-09T12:49:27;19.20;1.00
10543;DHT22;5320;50.046;10.314;2022-09-09T12:51:54;19.10;99.90
10543;DHT22;5320;50.046;10.314;2022-09-09T12:54:23;19.10;99.90
10543;DHT22;5320;50.046;10.314;2022-09-09T12:56:49;19.00;1.00
10543;DHT22;5320;50.046;10.314;2022-09-09T12:59:26;19.20;1.00
10543;DHT22;5320;50.046;10.314;2022-09-09T13:01:59;19.30;1.00
10543;DHT22;5320;50.046;10.314;2022-09-09T13:04:25;19.70;1.00
10543;DHT22;5320;50.046;10.314;2022-09-09T13:06:51;20.10;1.00
10543;DHT22;5320;50.046;10.314;2022-09-09T13:09:21;20.00;99.90
10543;DHT22;5320;50.046;10.314;2022-09-09T13:11:53;20.20;99.90
10543;DHT22;5320;50.046;10.314;2022-09-09T13:14:35;20.30;99.90
10543;DHT22;5320;50.046;10.314;2022-09-09T13:17:05;20.40;1.00
10543;DHT22;5320;50.046;10.314;2022-09-09T13:19:37;20.30;1.00
10543;DHT22;5320;50.046;10.314;2022-09-09T13:22:18;20.30;1.00
10543;DHT22;5320;50.046;10.314;2022-09-09T13:24:45;20.40;1.00
10543;DHT22;5320;50.046;10.314;2022-09-09T13:29:55;20.30;99.90
10543;DHT22;5320;50.046;10.314;2022-09-09T13:32:23;20.30;1.00
10543;DHT22;5320;50.046;10.314;2022-09-09T13:34:55;20.40;99.90
10543;DHT22;5320;50.046;10.314;2022-09-09T13:37:39;21.10;1.00
10543;DHT22;5320;50.046;10.314;2022-09-09T13:40:18;21.50;1.00
10543;DHT22;5320;50.046;10.314;2022-09-09T13:42:45;21.80;1.00
10543;DHT22;5320;50.046;10.314;2022-09-09T13:45:22;22.00;1.00
10543;DHT22;5320;50.046;10.314;2022-09-09T13:47:49;22.40;99.90
10543;DHT22;5320;50.046;10.314;2022-09-09T13:50:27;22.50;1.00
10543;DHT22;5320;50.046;10.314;2022-09-09T13:52:55;22.60;1.00
10543;DHT22;5320;50.046;10.314;2022-09-09T13:55:25;22.90;1.00
10543;DHT22;5320;50.046;10.314;2022-09-09T13:58:02;22.80;1.00
10543;DHT22;5320;50.046;10.314;2022-09-09T14:00:30;22.80;1.00
10543;DHT22;5320;50.046;10.314;2022-09-09T14:02:58;23.10;1.00
10543;DHT22;5320;50.046;10.314;2022-09-09T14:05:27;23.20;99.90
10543;DHT22;5320;50.046;10.314;2022-09-09T14:07:53;22.70;99.90
10543;DHT22;5320;50.046;10.314;2022-09-09T14:10:19;21.90;1.00
10543;DHT22;5320;50.046;10.314;2022-09-09T14:12:45;21.70;1.00
10543;DHT22;5320;50.046;10.314;2022-09-09T14:15:12;21.90;1.00
10543;DHT22;5320;50.046;10.314;2022-09-09T14:17:37;21.90;1.00
10543;DHT22;5320;50.046;10.314;2022-09-09T14:20:05;21.70;1.00
10543;DHT22;5320;50.046;10.314;2022-09-09T14:22:36;21.70;99.90
10543;DHT22;5320;50.046;10.314;2022-09-09T14:25:02;21.60;1.00
10543;DHT22;5320;50.046;10.314;2022-09-09T14:27:28;21.70;1.00
10543;DHT22;5320;50.046;10.314;2022-09-09T14:29:55;21.70;1.00
10543;DHT22;5320;50.046;10.314;2022-09-09T14:32:21;21.50;1.00
10543;DHT22;5320;50.046;10.314;2022-09-09T14:34:47;21.30;99.90
10543;DHT22;5320;50.046;10.314;2022-09-09T14:37:17;21.20;99.90
10543;DHT22;5320;50.046;10.314;2022-09-09T14:39:43;21.10;99.90
10543;DHT22;5320;50.046;10.314;2022-09-09T14:42:10;21.10;99.90
10543;DHT22;5320;50.046;10.314;2022-09-09T14:44:37;21.10;99.90
10543;DHT22;5320;50.046;10.314;2022-09-09T14:47:05;21.10;99.90
10543;DHT22;5320;50.046;10.314;2022-09-09T14:49:30;21.20;99.90
10543;DHT22;5320;50.046;10.314;2022-09-09T14:51:56;21.10;99.90
10543;DHT22;5320;50.046;10.314;2022-09-09T14:54:22;21.00;99.90
10543;DHT22;5320;50.046;10.314;2022-09-09T14:56:48;21.10;99.90
10543;DHT22;5320;50.046;10.314;2022-09-09T14:59:14;21.00;99.90
10543;DHT22;5320;50.046;10.314;2022-09-09T15:01:40;20.90;99.90
10543;DHT22;5320;50.046;10.314;2022-09-09T15:04:06;21.00;99.90
10543;DHT22;5320;50.046;10.314;2022-09-09T15:06:35;20.90;99.90
10543;DHT22;5320;50.046;10.314;2022-09-09T15:09:02;20.80;1.00
10543;DHT22;5320;50.046;10.314;2022-09-09T15:11:30;20.40;99.90
10543;DHT22;5320;50.046;10.314;2022-09-09T15:13:58;19.70;1.00
10543;DHT22;5320;50.046;10.314;2022-09-09T15:16:26;19.50;1.00
10543;DHT22;5320;50.046;10.314;2022-09-09T15:18:54;19.10;1.00
10543;DHT22;5320;50.046;10.314;2022-09-09T15:21:22;19.10;1.00
10543;DHT22;5320;50.046;10.314;2022-09-09T15:23:48;18.90;59.50
10543;DHT22;5320;50.046;10.314;2022-09-09T15:26:15;18.80;95.00
10543;DHT22;5320;50.046;10.314;2022-09-09T15:28:42;18.70;1.00
10543;DHT22;5320;50.046;10.314;2022-09-09T15:31:15;18.50;99.90
10543;DHT22;5320;50.046;10.314;2022-09-09T15:33:52;17.90;99.90
10543;DHT22;5320;50.046;10.314;2022-09-09T15:36:21;17.30;99.90
10543;DHT22;5320;50.046;10.314;2022-09-09T15:38:48;16.70;99.90
10543;DHT22;5320;50.046;10.314;2022-09-09T15:41:14;16.50;99.90
10543;DHT22;5320;50.046;10.314;2022-09-09T15:43:45;16.50;99.90
10543;DHT22;5320;50.046;10.314;2022-09-09T15:49:09;16.80;99.90
10543;DHT22;5320;50.046;10.314;2022-09-09T15:51:36;16.90;99.90
10543;DHT22;5320;50.046;10.314;2022-09-09T15:54:05;17.00;99.90
10543;DHT22;5320;50.046;10.314;2022-09-09T15:56:32;17.20;99.90
10543;DHT22;5320;50.046;10.314;2022-09-09T15:58:59;17.20;99.90
10543;DHT22;5320;50.046;10.314;2022-09-09T16:01:26;17.20;99.90
10543;DHT22;5320;50.046;10.314;2022-09-09T16:03:52;17.30;99.90
10543;DHT22;5320;50.046;10.314;2022-09-09T16:06:20;17.20;99.90
10543;DHT22;5320;50.046;10.314;2022-09-09T16:08:49;17.20;99.90
10543;DHT22;5320;50.046;10.314;2022-09-09T16:11:27;17.20;99.90
10543;DHT22;5320;50.046;10.314;2022-09-09T16:13:55;17.30;99.90
10543;DHT22;5320;50.046;10.314;2022-09-09T16:16:23;17.60;99.90
10543;DHT22;5320;50.046;10.314;2022-09-09T16:18:52;17.90;99.90
10543;DHT22;5320;50.046;10.314;2022-09-09T16:21:30;18.00;99.90
10543;DHT22;5320;50.046;10.314;2022-09-09T16:23:58;18.20;1.00
10543;DHT22;5320;50.046;10.314;2022-09-09T16:26:29;18.30;53.70
10543;DHT22;5320;50.046;10.314;2022-09-09T16:28:55;18.30;99.90
10543;DHT22;5320;50.046;10.314;2022-09-09T16:31:24;18.30;98.50
10543;DHT22;5320;50.046;10.314;2022-09-09T16:33:51;18.20;24.00
10543;DHT22;5320;50.046;10.314;2022-09-09T16:36:22;18.20;45.50
10543;DHT22;5320;50.046;10.314;2022-09-09T16:38:51;18.20;77.60
10543;DHT22;5320;50.046;10.314;2022-09-09T16:41:17;18.20;22.20
10543;DHT22;5320;50.046;10.314;2022-09-09T16:43:44;18.20;1.00
10543;DHT22;5320;50.046;10.314;2022-09-09T16:46:16;18.10;99.90
10543;DHT22;5320;50.046;10.314;2022-09-09T16:48:43;18.00;99.90
10543;DHT22;5320;50.046;10.314;2022-09-09T16:51:21;17.80;99.90
10543;DHT22;5320;50.046;10.314;2022-09-09T16:53:49;17.80;99.90
10543;DHT22;5320;50.046;10.314;2022-09-09T16:56:17;17.70;99.90
10543;DHT22;5320;50.046;10.314;2022-09-09T16:58:49;17.50;99.90
10543;DHT22;5320;50.046;10.314;2022-09-09T17:01:15;17.60;99.90
10543;DHT22;5320;50.046;10.314;2022-09-09T17:03:41;17.50;99.90
10543;DHT22;5320;50.046;10.314;2022-09-09T17:06:16;17.50;99.90
10543;DHT22;5320;50.046;10.314;2022-09-09T17:08:42;17.50;99.90
10543;DHT22;5320;50.046;10.314;2022-09-09T17:11:18;17.50;99.90
10543;DHT22;5320;50.046;10.314;2022-09-09T17:13:46;17.50;99.90
10543;DHT22;5320;50.046;10.314;2022-09-09T17:16:14;17.40;99.90
10543;DHT22;5320;50.046;10.314;2022-09-09T17:18:41;17.40;99.90
10543;DHT22;5320;50.046;10.314;2022-09-09T17:21:09;17.30;99.90
10543;DHT22;5320;50.046;10.314;2022-09-09T17:23:36;17.20;99.90
10543;DHT22;5320;50.046;10.314;2022-09-09T17:26:08;17.20;99.90
10543;DHT22;5320;50.046;10.314;2022-09-09T17:28:36;17.20;99.90
10543;DHT22;5320;50.046;10.314;2022-09-09T17:31:05;17.20;99.90
10543;DHT22;5320;50.046;10.314;2022-09-09T17:33:33;17.10;99.90
10543;DHT22;5320;50.046;10.314;2022-09-09T17:36:02;17.20;99.90
10543;DHT22;5320;50.046;10.314;2022-09-09T17:38:28;17.10;99.90
10543;DHT22;5320;50.046;10.314;2022-09-09T17:41:06;17.10;99.90
10543;DHT22;5320;50.046;10.314;2022-09-09T17:43:32;17.10;99.90
10543;DHT22;5320;50.046;10.314;2022-09-09T17:48:36;17.00;99.90
10543;DHT22;5320;50.046;10.314;2022-09-09T17:51:08;17.00;99.90
10543;DHT22;5320;50.046;10.314;2022-09-09T17:53:43;16.90;99.90
10543;DHT22;5320;50.046;10.314;2022-09-09T17:56:11;16.90;99.90
10543;DHT22;5320;50.046;10.314;2022-09-09T17:58:38;16.80;99.90
10543;DHT22;5320;50.046;10.314;2022-09-09T18:01:06;16.80;99.90
10543;DHT22;5320;50.046;10.314;2022-09-09T18:03:36;16.90;99.90